createdAt,value
2022-12-09T00:01:08.155Z,49.40
2022-12-09T00:03:35.260Z,49.30
2022-12-09T00:06:11.410Z,49.40
2022-12-09T00:08:38.473Z,49.30
2022-12-09T00:11:06.120Z,49.30
2022-12-09T00:13:33.087Z,49.30
2022-12-09T00:16:00.022Z,49.30
2022-12-09T00:18:26.912Z,49.30
2022-12-09T00:20:53.640Z,49.20
2022-12-09T00:23:20.644Z,49.30
2022-12-09T00:25:47.395Z,49.30
2022-12-09T00:28:14.289Z,49.30
2022-12-09T00:30:41.079Z,49.30
2022-12-09T00:33:08.092Z,49.30
2022-12-09T00:35:34.859Z,49.30
2022-12-09T00:38:01.571Z,49.30
2022-12-09T00:40:28.635Z,49.30
2022-12-09T00:42:55.330Z,49.30
2022-12-09T00:45:22.018Z,49.20
2022-12-09T00:47:48.697Z,49.30
2022-12-09T00:50:15.463Z,49.30
2022-12-09T00:52:42.112Z,49.30
2022-12-09T00:55:09.059Z,49.30
2022-12-09T00:57:35.768Z,49.30
2022-12-09T01:00:03.811Z,49.20
2022-12-09T01:02:30.903Z,49.20
2022-12-09T01:04:58.057Z,49.20
2022-12-09T01:07:24.752Z,49.20
2022-12-09T01:09:51.435Z,49.20
2022-12-09T01:12:18.081Z,49.20
2022-12-09T01:14:44.782Z,49.20
2022-12-09T01:17:12.125Z,49.20
2022-12-09T01:19:39.838Z,49.20
2022-12-09T01:22:06.566Z,49.20
2022-12-09T01:24:33.717Z,49.20
2022-12-09T01:27:00.438Z,49.10
2022-12-09T01:29:27.108Z,49.10
2022-12-09T01:31:56.821Z,49.10
2022-12-09T01:34:23.515Z,49.20
2022-12-09T02:50:27.262Z,49.00
2022-12-09T02:52:55.059Z,49.00
2022-12-09T02:55:22.964Z,49.10
2022-12-09T02:57:52.765Z,49.00
2022-12-09T03:00:21.120Z,49.00
2022-12-09T03:02:49.732Z,49.00
2022-12-09T03:05:18.481Z,49.00
2022-12-09T03:07:57.080Z,49.00
2022-12-09T03:10:29.324Z,49.00
2022-12-09T03:13:02.205Z,48.90
2022-12-09T03:15:31.201Z,48.90
2022-12-09T03:18:02.488Z,48.90
2022-12-09T03:20:30.348Z,48.90
2022-12-09T03:23:00.186Z,48.90
2022-12-09T03:25:29.972Z,48.90
2022-12-09T03:27:57.330Z,48.90
2022-12-09T03:30:25.190Z,48.90
2022-12-09T03:32:53.387Z,48.80
2022-12-09T03:35:31.523Z,48.80
2022-12-09T03:37:59.312Z,48.80
2022-12-09T03:40:28.299Z,48.80
2022-12-09T03:43:07.387Z,48.80
2022-12-09T03:45:35.445Z,48.80
2022-12-09T03:48:03.636Z,48.90
2022-12-09T03:50:35.642Z,48.80
2022-12-09T03:53:29.634Z,48.90
2022-12-09T03:55:57.056Z,48.80
2022-12-09T03:58:24.954Z,48.80
2022-12-09T04:00:52.905Z,48.80
2022-12-09T04:03:20.643Z,48.80
2022-12-09T04:05:48.260Z,48.80
2022-12-09T04:08:15.961Z,48.80
2022-12-09T04:10:43.603Z,48.80
2022-12-09T04:13:11.320Z,48.80
2022-12-09T04:15:39.233Z,48.70
2022-12-09T04:18:07.775Z,48.80
2022-12-09T04:20:35.689Z,48.80
2022-12-09T04:23:03.577Z,48.80
2022-12-09T04:25:31.293Z,48.80
2022-12-09T04:27:59.634Z,48.80
2022-12-09T04:30:27.291Z,48.70
2022-12-09T04:32:55.173Z,48.80
2022-12-09T04:35:23.144Z,48.70
2022-12-09T04:37:51.056Z,48.70
2022-12-09T04:40:23.759Z,48.60
2022-12-09T04:42:52.003Z,48.70
2022-12-09T04:45:18.977Z,48.70
2022-12-09T04:47:45.856Z,48.70
2022-12-09T04:50:14.180Z,48.60
2022-12-09T04:52:47.122Z,48.70
2022-12-09T04:55:15.183Z,48.70
2022-12-09T04:57:43.212Z,48.70
2022-12-09T05:00:11.272Z,48.70
2022-12-09T05:02:39.614Z,48.70
2022-12-09T05:05:07.644Z,48.70
2022-12-09T05:07:35.202Z,48.60
2022-12-09T05:10:03.909Z,48.60
2022-12-09T05:12:37.742Z,48.70
2022-12-09T05:15:06.563Z,48.60
2022-12-09T05:17:34.387Z,48.60
2022-12-09T05:20:02.118Z,48.60
2022-12-09T05:22:29.840Z,48.60
2022-12-09T05:24:57.721Z,48.60
2022-12-09T05:27:28.295Z,48.60
2022-12-09T05:29:55.930Z,48.60
2022-12-09T05:32:23.954Z,48.60
2022-12-09T05:34:52.814Z,48.60
2022-12-09T05:37:20.717Z,48.60
2022-12-09T05:39:48.678Z,48.60
2022-12-09T05:42:16.666Z,48.60
2022-12-09T05:44:49.996Z,48.60
2022-12-09T05:47:23.477Z,48.60
2022-12-09T05:49:52.467Z,48.60
2022-12-09T05:52:21.675Z,48.60
2022-12-09T05:54:49.867Z,48.60
2022-12-09T05:57:17.780Z,48.60
2022-12-09T05:59:45.930Z,48.70
2022-12-09T06:02:13.547Z,48.60
2022-12-09T06:04:42.020Z,48.70
2022-12-09T06:07:10.360Z,48.70
2022-12-09T06:09:40.224Z,48.60
2022-12-09T06:12:08.417Z,48.70
2022-12-09T06:14:38.703Z,48.60
2022-12-09T06:17:18.769Z,48.80
2022-12-09T06:19:47.579Z,48.70
2022-12-09T06:22:16.332Z,48.80
2022-12-09T06:24:45.002Z,48.80
2022-12-09T06:27:13.524Z,48.80
2022-12-09T06:29:45.745Z,48.90
2022-12-09T06:50:05.871Z,48.30
2022-12-09T06:52:44.777Z,48.80
2022-12-09T06:55:15.441Z,48.80
2022-12-09T06:57:46.228Z,48.90
2022-12-09T07:00:34.434Z,49.10
2022-12-09T07:03:18.877Z,49.30
2022-12-09T07:05:49.981Z,49.40
2022-12-09T07:08:19.991Z,49.20
2022-12-09T07:10:51.732Z,49.20
2022-12-09T07:13:23.489Z,49.30
2022-12-09T07:15:50.410Z,49.30
2022-12-09T07:18:17.565Z,49.40
2022-12-09T07:20:44.608Z,49.40
2022-12-09T07:23:12.042Z,49.50
2022-12-09T07:25:39.010Z,49.50
2022-12-09T07:28:06.110Z,49.50
2022-12-09T07:30:32.827Z,49.50
2022-12-09T07:32:59.990Z,49.60
2022-12-09T07:35:26.860Z,49.80
2022-12-09T07:37:55.920Z,49.80
2022-12-09T07:40:22.789Z,50.00
2022-12-09T07:42:51.747Z,50.00
2022-12-09T07:45:22.680Z,50.00
2022-12-09T07:47:49.453Z,50.30
2022-12-09T07:50:16.700Z,50.30
2022-12-09T07:52:43.531Z,50.50
2022-12-09T07:55:10.844Z,50.40
2022-12-09T07:57:38.781Z,50.40
2022-12-09T08:00:06.271Z,50.20
2022-12-09T08:02:33.150Z,50.20
2022-12-09T08:05:00.377Z,50.20
2022-12-09T08:07:27.436Z,50.20
2022-12-09T08:09:56.507Z,50.20
2022-12-09T08:12:23.686Z,50.30
2022-12-09T08:14:50.665Z,50.20
2022-12-09T08:17:17.823Z,50.30
2022-12-09T08:19:45.037Z,50.20
2022-12-09T08:22:12.332Z,50.10
2022-12-09T08:24:39.165Z,50.10
2022-12-09T08:27:06.077Z,50.10
2022-12-09T08:29:32.988Z,50.10
2022-12-09T08:31:59.968Z,50.10
2022-12-09T08:34:27.032Z,50.10
2022-12-09T08:37:00.248Z,50.10
2022-12-09T08:39:29.002Z,50.10
2022-12-09T08:41:55.856Z,50.10
2022-12-09T08:44:23.458Z,50.00
2022-12-09T08:46:51.043Z,50.10
2022-12-09T08:49:19.274Z,50.20
2022-12-09T08:51:46.825Z,50.10
2022-12-09T08:54:13.946Z,50.10
2022-12-09T08:56:43.634Z,50.10
2022-12-09T08:59:10.440Z,50.10
2022-12-09T09:01:37.395Z,50.10
2022-12-09T09:04:06.329Z,50.10
2022-12-09T09:06:34.066Z,50.00
2022-12-09T09:09:01.125Z,50.00
2022-12-09T09:11:28.068Z,50.00
2022-12-09T09:13:55.289Z,50.00
2022-12-09T09:16:23.764Z,50.00
2022-12-09T09:18:50.947Z,50.10
2022-12-09T09:21:19.586Z,50.00
2022-12-09T09:23:46.792Z,50.10
2022-12-09T09:26:14.510Z,50.10
2022-12-09T09:28:41.332Z,50.10
2022-12-09T09:31:08.642Z,50.10
2022-12-09T09:33:35.735Z,50.10
2022-12-09T09:36:09.681Z,50.20
2022-12-09T09:38:36.932Z,50.70
2022-12-09T09:41:07.560Z,50.10
2022-12-09T09:43:34.965Z,50.10
2022-12-09T09:46:02.056Z,49.50
2022-12-09T09:48:30.433Z,49.70
2022-12-09T09:51:17.746Z,50.00
2022-12-09T09:53:44.562Z,50.00
2022-12-09T09:56:18.304Z,49.70
2022-12-09T09:58:49.644Z,49.80
2022-12-09T10:01:16.885Z,49.70
2022-12-09T10:03:47.588Z,49.80
2022-12-09T10:06:14.884Z,49.80
2022-12-09T10:08:44.928Z,49.70
2022-12-09T10:11:12.839Z,49.80
2022-12-09T10:13:46.228Z,50.30
2022-12-09T10:16:19.926Z,49.80
2022-12-09T10:18:55.440Z,49.80
2022-12-09T10:21:22.571Z,49.80
2022-12-09T10:23:49.812Z,49.70
2022-12-09T10:26:22.904Z,49.70
2022-12-09T10:28:54.179Z,49.60
2022-12-09T10:31:21.287Z,49.60
2022-12-09T10:33:48.160Z,49.60
2022-12-09T10:36:30.634Z,49.50
2022-12-09T10:39:00.923Z,49.50
2022-12-09T10:41:53.228Z,49.50
2022-12-09T10:44:21.137Z,49.50
2022-12-09T10:46:48.630Z,49.50
2022-12-09T10:49:19.383Z,49.50
2022-12-09T10:51:50.418Z,49.50
2022-12-09T10:54:20.964Z,49.50
2022-12-09T10:57:02.822Z,49.40
2022-12-09T10:59:30.146Z,49.40
2022-12-09T11:02:16.768Z,49.40
2022-12-09T11:04:45.052Z,49.40
2022-12-09T11:07:12.077Z,49.50
2022-12-09T11:09:43.786Z,49.30
2022-12-09T11:12:41.437Z,49.40
2022-12-09T11:15:24.035Z,49.30
2022-12-09T11:17:56.027Z,49.20
2022-12-09T11:20:28.299Z,49.20
2022-12-09T11:23:18.915Z,49.10
2022-12-09T11:25:53.940Z,49.20
2022-12-09T11:28:23.916Z,49.10
2022-12-09T11:31:27.760Z,49.10
2022-12-09T11:33:48.491Z,49.20
2022-12-09T11:36:23.061Z,49.30
2022-12-09T11:38:51.328Z,49.20
2022-12-09T11:41:40.230Z,49.30
2022-12-09T11:44:22.186Z,49.30
2022-12-09T11:46:55.812Z,49.40
2022-12-09T11:49:22.586Z,49.40
2022-12-09T11:55:20.192Z,49.50
2022-12-09T11:57:57.370Z,49.50
2022-12-09T12:00:29.912Z,49.10
2022-12-09T12:03:01.233Z,49.80
2022-12-09T12:05:37.772Z,49.80
2022-12-09T12:08:04.605Z,49.70
2022-12-09T12:10:36.005Z,49.80
2022-12-09T12:13:11.601Z,49.70
2022-12-09T12:15:38.356Z,49.70
2022-12-09T12:18:05.309Z,50.50
2022-12-09T12:20:43.925Z,49.70
2022-12-09T12:23:10.643Z,49.90
2022-12-09T12:25:37.364Z,49.80
2022-12-09T12:28:13.404Z,50.00
2022-12-09T12:30:41.507Z,49.90
2022-12-09T12:33:59.701Z,49.50
2022-12-09T12:36:16.592Z,48.60
2022-12-09T12:39:02.101Z,49.90
2022-12-09T12:41:36.341Z,49.80
2022-12-09T12:44:31.379Z,49.60
2022-12-09T12:47:10.107Z,49.60
2022-12-09T12:49:41.468Z,49.50
2022-12-09T12:52:32.791Z,49.60
2022-12-09T12:55:03.963Z,49.50
2022-12-09T12:57:30.652Z,49.70
2022-12-09T12:59:57.426Z,49.70
2022-12-09T13:02:24.219Z,49.60
2022-12-09T13:04:54.386Z,49.70
2022-12-09T13:07:28.221Z,49.70
2022-12-09T13:10:09.059Z,49.80
2022-12-09T13:12:55.199Z,49.70
2022-12-09T13:15:38.441Z,49.70
2022-12-09T13:18:07.286Z,49.80
2022-12-09T13:20:38.986Z,49.70
2022-12-09T13:23:07.076Z,49.80
2022-12-09T13:25:49.027Z,49.70
2022-12-09T13:28:37.952Z,49.80
2022-12-09T13:31:04.720Z,49.80
2022-12-09T13:33:40.577Z,49.50
2022-12-09T13:36:18.840Z,49.50
2022-12-09T13:38:45.552Z,49.80
2022-12-09T13:41:27.743Z,49.80
2022-12-09T13:43:57.708Z,49.70
2022-12-09T13:46:25.059Z,49.80
2022-12-09T13:48:51.907Z,49.70
2022-12-09T13:51:18.590Z,49.70
2022-12-09T13:54:03.844Z,49.70
2022-12-09T13:56:31.546Z,49.40
2022-12-09T13:59:23.191Z,49.60
2022-12-09T14:01:54.823Z,49.60
2022-12-09T14:04:25.856Z,49.60
2022-12-09T14:07:15.802Z,49.60
2022-12-09T14:09:45.202Z,49.60
2022-12-09T14:12:12.675Z,49.70
2022-12-09T14:15:17.920Z,49.60
2022-12-09T14:17:47.209Z,49.80
2022-12-09T14:20:21.995Z,49.80
2022-12-09T14:23:03.994Z,50.00
2022-12-09T14:25:33.682Z,49.90
2022-12-09T14:28:13.943Z,50.00
2022-12-09T14:30:40.638Z,50.00
2022-12-09T14:33:20.413Z,50.00
2022-12-09T14:35:48.792Z,50.00
2022-12-09T14:38:29.314Z,50.00
2022-12-09T14:41:14.528Z,50.10
2022-12-09T14:43:53.263Z,50.00
2022-12-09T14:46:21.444Z,50.30
2022-12-09T14:48:51.404Z,50.20
2022-12-09T14:51:24.457Z,50.20
2022-12-09T14:53:56.029Z,50.30
2022-12-09T14:56:23.023Z,50.20
2022-12-09T14:58:50.457Z,50.30
2022-12-09T15:01:18.384Z,50.30
2022-12-09T15:03:52.418Z,50.30
2022-12-09T15:06:19.506Z,50.20
2022-12-09T15:08:46.876Z,50.20
2022-12-09T15:11:13.476Z,50.30
2022-12-09T15:13:41.470Z,50.20
2022-12-09T15:16:15.297Z,50.30
2022-12-09T15:18:42.135Z,50.20
2022-12-09T15:21:08.831Z,50.20
2022-12-09T15:23:40.603Z,50.20
2022-12-09T15:26:08.721Z,50.10
2022-12-09T15:28:36.398Z,50.20
2022-12-09T15:31:18.440Z,50.20
2022-12-09T15:33:46.085Z,50.20
2022-12-09T15:36:12.834Z,49.20
2022-12-09T15:38:46.065Z,49.40
2022-12-09T15:41:31.459Z,49.70
2022-12-09T15:44:00.910Z,50.20
2022-12-09T15:46:27.576Z,50.30
2022-12-09T15:48:54.908Z,50.70
2022-12-09T15:51:21.929Z,50.50
2022-12-09T15:53:55.313Z,50.50
2022-12-09T15:56:25.093Z,50.50
2022-12-09T15:58:52.629Z,50.40
2022-12-09T16:01:23.851Z,50.20
2022-12-09T16:03:51.385Z,50.30
2022-12-09T16:06:22.614Z,50.30
2022-12-09T16:08:49.288Z,50.20
2022-12-09T16:11:33.852Z,50.20
2022-12-09T16:14:00.626Z,50.10
2022-12-09T16:16:30.274Z,50.00
2022-12-09T16:18:57.001Z,50.00
2022-12-09T16:21:30.930Z,50.10
2022-12-09T16:24:04.917Z,50.00
2022-12-09T16:26:32.807Z,50.00
2022-12-09T16:29:14.334Z,50.00
2022-12-09T16:31:41.080Z,50.00
2022-12-09T16:34:19.120Z,50.00
2022-12-09T16:36:52.200Z,49.90
2022-12-09T16:39:24.997Z,50.00
2022-12-09T16:41:51.665Z,49.90
2022-12-09T16:44:22.235Z,49.60
2022-12-09T16:46:48.835Z,49.40
2022-12-09T16:49:15.740Z,49.90
2022-12-09T16:51:42.450Z,49.80
2022-12-09T16:54:19.665Z,49.90
2022-12-09T16:56:47.040Z,49.80
2022-12-09T16:59:13.752Z,49.70
2022-12-09T17:01:41.618Z,49.70
2022-12-09T17:04:15.245Z,49.70
2022-12-09T17:06:42.140Z,49.70
2022-12-09T17:09:09.724Z,49.70
2022-12-09T17:11:36.386Z,49.60
2022-12-09T17:14:03.378Z,49.60
2022-12-09T17:16:30.094Z,49.60
2022-12-09T17:18:56.814Z,49.60
2022-12-09T17:21:23.408Z,49.60
2022-12-09T17:23:50.131Z,49.60
2022-12-09T17:26:17.499Z,49.50
2022-12-09T17:28:44.408Z,49.50
2022-12-09T17:31:15.245Z,49.50
2022-12-09T17:33:43.788Z,49.50
2022-12-09T17:36:10.971Z,49.50
2022-12-09T17:38:37.575Z,49.50
2022-12-09T17:41:04.919Z,49.50
2022-12-09T17:43:31.855Z,49.50
2022-12-09T17:45:59.496Z,49.60
2022-12-09T17:48:26.230Z,49.40
2022-12-09T17:50:52.844Z,49.50
2022-12-09T17:53:19.566Z,49.40
2022-12-09T17:55:46.175Z,49.40
2022-12-09T17:58:12.765Z,49.40
2022-12-09T18:00:40.154Z,49.40
2022-12-09T18:03:07.011Z,49.40
2022-12-09T18:05:39.776Z,49.50
2022-12-09T18:08:06.522Z,49.40
2022-12-09T18:10:33.187Z,49.40
2022-12-09T18:12:59.993Z,49.40
2022-12-09T18:15:27.384Z,49.40
2022-12-09T18:17:54.047Z,49.40
2022-12-09T18:20:20.762Z,49.40
2022-12-09T18:22:47.352Z,49.40
2022-12-09T18:25:13.934Z,49.40
2022-12-09T18:27:40.590Z,49.40
2022-12-09T18:30:07.931Z,49.40
2022-12-09T18:32:36.298Z,49.30
2022-12-09T18:35:03.180Z,49.40
2022-12-09T18:37:30.551Z,49.30
2022-12-09T18:39:57.162Z,49.30
2022-12-09T18:42:23.772Z,49.30
2022-12-09T18:44:50.430Z,49.30
2022-12-09T18:47:17.195Z,49.30
2022-12-09T18:49:43.892Z,49.30
2022-12-09T18:52:10.509Z,49.30
2022-12-09T18:54:37.226Z,49.30
2022-12-09T18:57:03.964Z,49.40
2022-12-09T18:59:31.290Z,49.30
2022-12-09T19:01:58.023Z,49.20
2022-12-09T19:04:25.531Z,49.30
2022-12-09T19:06:53.085Z,49.30
2022-12-09T19:09:20.580Z,49.40
2022-12-09T19:11:47.680Z,49.40
2022-12-09T19:14:14.503Z,49.40
2022-12-09T19:16:41.195Z,49.40
2022-12-09T19:19:10.500Z,49.30
2022-12-09T19:21:37.689Z,49.30
2022-12-09T19:24:04.779Z,49.30
2022-12-09T19:26:32.059Z,49.30
2022-12-09T19:28:59.513Z,49.40
2022-12-09T19:31:27.595Z,49.20
2022-12-09T19:33:55.088Z,49.40
2022-12-09T19:36:22.078Z,49.90
2022-12-09T19:38:48.750Z,49.40
2022-12-09T19:41:15.594Z,49.30
2022-12-09T19:43:42.316Z,49.30
2022-12-09T19:46:10.006Z,49.40
2022-12-09T19:48:37.207Z,49.60
2022-12-09T19:51:07.878Z,49.20
2022-12-09T19:53:34.562Z,49.30
2022-12-09T19:56:01.777Z,49.20
2022-12-09T19:58:28.873Z,49.30
2022-12-09T20:00:55.508Z,49.20
2022-12-09T20:03:22.112Z,49.20
2022-12-09T20:05:49.544Z,49.20
2022-12-09T20:08:16.396Z,49.20
2022-12-09T20:10:44.026Z,49.10
2022-12-09T20:13:11.065Z,49.20
2022-12-09T20:15:37.705Z,49.20
2022-12-09T20:18:04.542Z,49.10
2022-12-09T20:20:32.567Z,49.10
2022-12-09T20:22:59.268Z,49.10
2022-12-09T20:25:25.929Z,49.10
2022-12-09T20:27:52.716Z,49.10
2022-12-09T20:30:20.074Z,49.10
2022-12-09T20:32:48.574Z,49.10
2022-12-09T20:35:15.422Z,49.20
2022-12-09T20:37:42.277Z,49.10
2022-12-09T20:40:09.576Z,49.10
2022-12-09T20:42:36.571Z,49.10
2022-12-09T20:45:03.338Z,49.10
2022-12-09T20:47:29.953Z,49.10
2022-12-09T20:49:56.635Z,49.10
2022-12-09T20:52:23.226Z,49.00
2022-12-09T20:54:49.877Z,49.10
2022-12-09T20:57:16.524Z,49.00
2022-12-09T20:59:43.111Z,49.00
2022-12-09T21:02:13.835Z,49.00
2022-12-09T21:04:40.497Z,49.00
2022-12-09T21:07:08.350Z,49.00
2022-12-09T21:09:34.996Z,49.00
2022-12-09T21:12:01.615Z,49.00
2022-12-09T21:14:33.124Z,49.00
2022-12-09T21:16:59.866Z,49.00
2022-12-09T21:19:29.994Z,49.00
2022-12-09T21:21:56.626Z,49.00
2022-12-09T21:24:24.605Z,49.00
2022-12-09T21:26:53.398Z,49.10
2022-12-09T21:29:20.286Z,49.10
2022-12-09T21:31:48.273Z,49.00
2022-12-09T21:34:15.021Z,49.00
2022-12-09T21:36:42.629Z,49.00
2022-12-09T21:39:10.591Z,49.00
2022-12-09T21:41:37.410Z,49.00
2022-12-09T21:44:04.265Z,48.90
2022-12-09T21:46:31.850Z,48.90
2022-12-09T21:49:03.552Z,48.90
2022-12-09T21:51:31.197Z,48.90
2022-12-09T21:53:57.869Z,48.90
2022-12-09T21:56:26.147Z,48.80
2022-12-09T21:58:53.573Z,48.90
2022-12-09T22:01:21.333Z,48.80
2022-12-09T22:03:48.126Z,48.80
2022-12-09T22:06:14.948Z,48.80
2022-12-09T22:08:41.708Z,48.80
2022-12-09T22:11:14.319Z,48.70
2022-12-09T22:13:40.998Z,48.80
2022-12-09T22:16:08.163Z,48.70
2022-12-09T22:18:34.972Z,48.80
2022-12-09T22:21:25.704Z,48.80
2022-12-09T22:23:56.948Z,48.70
2022-12-09T22:26:23.590Z,48.80
2022-12-09T22:28:50.337Z,48.70
2022-12-09T22:31:18.167Z,48.70
2022-12-09T22:33:45.020Z,48.70
2022-12-09T22:36:12.545Z,48.80
2022-12-09T22:38:39.516Z,48.80
2022-12-09T22:41:06.807Z,48.70
2022-12-09T22:43:37.905Z,48.80
2022-12-09T22:46:06.050Z,48.70
2022-12-09T22:48:32.799Z,48.70
2022-12-09T22:51:03.529Z,48.80
2022-12-09T22:53:30.677Z,48.80
2022-12-09T22:55:57.470Z,48.70
2022-12-09T22:58:24.113Z,48.80
2022-12-09T23:00:50.755Z,48.70
2022-12-09T23:03:18.112Z,48.70
2022-12-09T23:05:44.862Z,48.70
2022-12-09T23:08:11.519Z,48.80
2022-12-09T23:10:38.345Z,48.70
2022-12-09T23:13:05.061Z,48.70
2022-12-09T23:15:32.246Z,48.60
2022-12-09T23:17:58.869Z,48.60
2022-12-09T23:20:25.452Z,48.60
2022-12-09T23:22:52.044Z,48.60
2022-12-09T23:25:18.650Z,48.60
2022-12-09T23:27:45.283Z,48.60
2022-12-09T23:30:12.199Z,48.60
2022-12-09T23:32:38.921Z,48.60
2022-12-09T23:35:07.573Z,48.60
2022-12-09T23:37:34.382Z,48.60
2022-12-09T23:40:03.816Z,48.60
2022-12-09T23:42:30.396Z,48.60
2022-12-09T23:44:57.070Z,48.50
2022-12-09T23:47:23.751Z,48.60
2022-12-09T23:49:50.344Z,48.60
2022-12-09T23:52:16.970Z,48.50
2022-12-09T23:54:43.620Z,48.50
2022-12-09T23:57:10.290Z,48.50
2022-12-09T23:59:36.935Z,48.50
